Time;durP1;ratioP1;P1;durP2;ratioP2;P2;SDS_P1;SDS_P2;PMS_P1;PMS_P2;Temp;Humidity;BMP_temperature;BMP_pressure;BME280_temperature;BME280_humidity;BME280_pressure;Samples;Min_cycle;Max_cycle;Signal;HPM_P1;HPM_P2
2023/06/25 00:01:46;;;;;;;6.00;5.40;;;26.10;41.30;;;;;;4963847;28;20493;-46
2023/06/25 00:04:11;;;;;;;6.70;5.77;;;26.10;41.30;;;;;;4962295;28;20595;-45
2023/06/25 00:06:37;;;;;;;6.07;5.57;;;26.10;41.30;;;;;;4959057;28;20199;-47
2023/06/25 00:09:02;;;;;;;4.20;3.80;;;26.10;41.30;;;;;;4959205;28;20211;-49
2023/06/25 00:11:28;;;;;;;5.43;4.93;;;26.10;41.30;;;;;;4963034;28;20203;-47
2023/06/25 00:13:54;;;;;;;5.50;5.00;;;26.10;41.20;;;;;;4967847;28;20249;-48
2023/06/25 00:16:20;;;;;;;5.83;5.33;;;26.10;41.20;;;;;;4968353;28;20570;-45
2023/06/25 00:18:47;;;;;;;5.67;5.07;;;26.20;41.20;;;;;;4966641;28;20206;-46
2023/06/25 00:21:13;;;;;;;5.63;5.17;;;26.20;41.30;;;;;;4965638;28;20286;-45
2023/06/25 00:23:39;;;;;;;6.57;5.97;;;26.10;41.50;;;;;;4969022;28;20482;-44
2023/06/25 00:26:05;;;;;;;5.47;5.07;;;26.20;41.30;;;;;;4964484;28;20450;-45
2023/06/25 00:28:30;;;;;;;5.37;4.90;;;26.20;41.50;;;;;;4963493;28;20192;-46
2023/06/25 00:30:56;;;;;;;5.87;5.37;;;26.10;41.80;;;;;;4966711;28;20250;-47
2023/06/25 00:33:21;;;;;;;5.73;5.23;;;26.00;41.90;;;;;;4964558;28;20191;-45
2023/06/25 00:35:50;;;;;;;4.20;3.80;;;26.00;42.20;;;;;;4962792;28;21823;-45
2023/06/25 00:38:16;;;;;;;9.40;4.33;;;25.90;42.40;;;;;;4966036;28;20183;-45
2023/06/25 00:40:42;;;;;;;4.73;4.30;;;26.00;43.40;;;;;;4961407;28;20560;-46
2023/06/25 00:43:08;;;;;;;5.80;4.80;;;26.10;42.80;;;;;;4964105;28;20976;-45
2023/06/25 00:45:34;;;;;;;6.13;5.53;;;26.20;42.40;;;;;;4966585;28;20238;-49
2023/06/25 00:48:01;;;;;;;5.10;4.67;;;26.40;42.00;;;;;;4957958;28;20195;-45
2023/06/25 00:50:27;;;;;;;4.93;4.53;;;26.50;41.70;;;;;;4969107;28;20439;-45
2023/06/25 00:52:53;;;;;;;7.40;5.10;;;26.60;41.50;;;;;;4961584;28;20458;-45
2023/06/25 00:55:19;;;;;;;5.53;5.03;;;26.70;41.10;;;;;;4968134;28;20639;-45
2023/06/25 00:57:45;;;;;;;5.40;4.90;;;26.70;41.20;;;;;;4959617;28;20246;-45
2023/06/25 01:00:16;;;;;;;6.57;5.80;;;26.80;41.10;;;;;;4957366;28;20458;-45
2023/06/25 01:03:01;;;;;;;5.90;5.30;;;26.80;40.90;;;;;;4957423;28;20461;-45
2023/06/25 01:05:39;;;;;;;5.50;5.00;;;27.00;41.00;;;;;;4963110;28;20537;-45
2023/06/25 01:08:11;;;;;;;5.47;5.07;;;27.00;40.70;;;;;;4959936;28;20454;-45
2023/06/25 01:10:38;;;;;;;5.30;4.90;;;27.00;40.70;;;;;;4958535;28;21043;-46
2023/06/25 01:13:04;;;;;;;5.70;5.23;;;27.00;40.50;;;;;;4960609;28;20455;-45
2023/06/25 01:15:30;;;;;;;5.53;5.07;;;27.10;40.50;;;;;;4964279;28;20539;-45
2023/06/25 01:17:57;;;;;;;5.43;4.97;;;27.10;40.40;;;;;;4961772;28;20952;-46
2023/06/25 01:20:26;;;;;;;6.70;5.53;;;27.20;40.30;;;;;;4964317;28;20470;-45
2023/06/25 01:22:53;;;;;;;5.13;4.63;;;27.20;40.30;;;;;;4959876;28;20482;-46
2023/06/25 01:25:18;;;;;;;5.30;4.90;;;27.20;40.20;;;;;;4957712;28;20446;-46
2023/06/25 01:27:44;;;;;;;5.70;4.97;;;27.20;40.20;;;;;;4955060;28;20809;-45
2023/06/25 01:30:11;;;;;;;6.33;5.43;;;27.10;40.10;;;;;;4956801;28;20688;-46
2023/06/25 01:32:41;;;;;;;5.03;4.63;;;27.00;39.90;;;;;;4955318;28;20358;-47
2023/06/25 01:35:08;;;;;;;7.60;5.07;;;27.00;40.50;;;;;;4964237;28;20587;-45
2023/06/25 01:37:34;;;;;;;5.40;4.90;;;26.90;40.50;;;;;;4968937;28;20473;-45
2023/06/25 01:39:59;;;;;;;5.80;5.20;;;26.80;40.50;;;;;;4964813;28;20537;-45
2023/06/25 01:42:25;;;;;;;5.77;5.27;;;26.80;40.70;;;;;;4961855;28;20505;-44
2023/06/25 01:44:51;;;;;;;7.60;5.53;;;26.80;40.80;;;;;;4968519;28;20199;-46
2023/06/25 01:47:17;;;;;;;5.40;4.90;;;26.80;41.00;;;;;;4946430;28;20203;-45
2023/06/25 01:49:43;;;;;;;5.93;5.43;;;26.70;41.00;;;;;;4964384;28;20458;-44
2023/06/25 01:52:08;;;;;;;5.73;5.23;;;26.80;41.00;;;;;;4965895;28;20226;-45
2023/06/25 01:54:34;;;;;;;7.10;4.80;;;26.70;41.10;;;;;;4968417;28;20195;-46
2023/06/25 01:57:01;;;;;;;5.30;4.87;;;26.70;41.20;;;;;;4969934;28;20203;-45
2023/06/25 01:59:27;;;;;;;6.57;5.40;;;26.70;41.00;;;;;;4969836;28;20195;-45
2023/06/25 02:01:53;;;;;;;5.33;4.90;;;26.70;41.00;;;;;;4963351;28;20968;-45
2023/06/25 02:04:19;;;;;;;6.90;4.73;;;26.70;41.20;;;;;;4968143;28;20945;-44
2023/06/25 02:06:45;;;;;;;5.27;4.87;;;26.80;41.00;;;;;;4960633;28;20527;-45
2023/06/25 02:09:10;;;;;;;5.00;4.40;;;26.80;41.00;;;;;;4963707;28;20204;-46
2023/06/25 02:11:36;;;;;;;4.77;4.40;;;26.80;40.90;;;;;;4967623;28;20447;-43
2023/06/25 02:14:03;;;;;;;4.80;4.43;;;26.80;41.00;;;;;;4970491;28;20226;-44
2023/06/25 02:16:29;;;;;;;5.73;4.60;;;26.80;41.60;;;;;;4965104;28;20273;-44
2023/06/25 02:18:54;;;;;;;6.27;5.67;;;26.80;41.00;;;;;;4962772;28;20854;-43
2023/06/25 02:21:20;;;;;;;4.97;4.60;;;26.70;41.00;;;;;;4967423;28;20327;-43
2023/06/25 02:23:46;;;;;;;5.50;5.10;;;26.70;41.20;;;;;;4964483;28;20242;-43
2023/06/25 02:26:11;;;;;;;6.10;5.50;;;26.70;41.10;;;;;;4969695;28;20254;-43
2023/06/25 02:28:37;;;;;;;5.50;5.10;;;26.70;41.00;;;;;;4962245;28;20210;-43
2023/06/25 02:31:02;;;;;;;4.90;4.33;;;26.70;40.80;;;;;;4969425;28;20311;-43
2023/06/25 02:33:28;;;;;;;5.93;5.43;;;26.70;41.00;;;;;;4965189;28;20195;-45
2023/06/25 02:35:54;;;;;;;5.40;5.00;;;26.70;41.20;;;;;;4948823;28;20234;-45
2023/06/25 02:38:19;;;;;;;6.17;5.57;;;26.70;41.20;;;;;;4968773;28;20231;-45
2023/06/25 02:40:45;;;;;;;5.10;4.60;;;26.60;41.20;;;;;;4966372;28;20191;-43
2023/06/25 02:43:10;;;;;;;4.90;4.50;;;26.60;41.40;;;;;;4969269;28;20199;-43
2023/06/25 02:45:36;;;;;;;5.03;4.57;;;26.50;41.60;;;;;;4965959;28;20198;-43
2023/06/25 02:48:02;;;;;;;5.93;5.53;;;26.50;41.70;;;;;;4969982;28;22625;-43
2023/06/25 02:50:27;;;;;;;5.80;5.30;;;26.50;41.60;;;;;;4965758;28;20259;-43
2023/06/25 02:52:53;;;;;;;8.17;5.37;;;26.50;41.40;;;;;;4969739;28;20217;-43
2023/06/25 02:55:18;;;;;;;6.17;5.67;;;26.50;41.60;;;;;;4967392;28;20223;-43
2023/06/25 02:57:44;;;;;;;5.70;5.30;;;26.50;41.60;;;;;;4963064;28;20570;-43
2023/06/25 03:00:10;;;;;;;6.20;5.60;;;26.50;41.50;;;;;;4962079;28;20187;-43
2023/06/25 03:02:35;;;;;;;5.83;5.33;;;26.50;41.50;;;;;;4965909;28;20221;-43
2023/06/25 03:05:01;;;;;;;5.73;5.23;;;26.30;42.20;;;;;;4966148;28;20938;-43
2023/06/25 03:07:27;;;;;;;5.57;5.17;;;26.20;41.90;;;;;;4956430;28;20204;-43
2023/06/25 03:09:52;;;;;;;5.00;4.60;;;26.10;42.20;;;;;;4958698;28;20199;-43
2023/06/25 03:12:18;;;;;;;5.83;5.33;;;26.00;42.60;;;;;;4970263;28;20195;-46
2023/06/25 03:14:43;;;;;;;9.10;6.23;;;26.00;42.50;;;;;;4968012;28;20202;-45
2023/06/25 03:17:09;;;;;;;6.50;5.90;;;26.00;42.30;;;;;;4972611;28;20242;-44
2023/06/25 03:19:35;;;;;;;8.93;5.63;;;26.10;42.10;;;;;;4964583;28;20954;-47
2023/06/25 03:22:00;;;;;;;5.90;5.40;;;26.00;42.10;;;;;;4970980;28;20206;-45
2023/06/25 03:24:26;;;;;;;5.87;5.37;;;25.90;42.40;;;;;;4967790;28;20262;-45
2023/06/25 03:26:52;;;;;;;5.07;4.67;;;25.80;42.70;;;;;;4970607;28;20203;-45
2023/06/25 03:29:17;;;;;;;6.43;5.77;;;25.80;42.90;;;;;;4970320;28;20196;-45
2023/06/25 03:31:43;;;;;;;5.47;5.00;;;25.90;42.90;;;;;;4969621;28;20663;-45
2023/06/25 03:34:09;;;;;;;5.93;5.50;;;25.90;42.60;;;;;;4965881;28;20277;-47
2023/06/25 03:36:34;;;;;;;6.10;5.50;;;25.90;42.60;;;;;;4969399;28;20319;-45
2023/06/25 03:39:00;;;;;;;5.50;4.97;;;25.90;42.40;;;;;;4972676;28;20629;-45
2023/06/25 03:41:26;;;;;;;6.50;5.90;;;25.90;42.70;;;;;;4967212;28;20215;-45
2023/06/25 03:43:51;;;;;;;5.80;5.37;;;25.90;42.60;;;;;;4968185;28;20285;-45
2023/06/25 03:46:17;;;;;;;5.50;5.10;;;25.90;42.50;;;;;;4972413;28;20678;-46
2023/06/25 03:48:44;;;;;;;6.50;4.90;;;26.00;42.40;;;;;;4965958;28;20964;-45
2023/06/25 03:51:11;;;;;;;5.30;4.83;;;26.00;42.40;;;;;;4971905;28;20219;-45
2023/06/25 03:53:39;;;;;;;5.40;4.90;;;26.00;42.50;;;;;;4961624;28;20454;-46
2023/06/25 03:56:05;;;;;;;5.30;4.90;;;26.10;42.30;;;;;;4964970;28;20491;-45
2023/06/25 03:58:31;;;;;;;4.80;4.33;;;26.10;42.10;;;;;;4970105;28;20472;-45
2023/06/25 04:00:56;;;;;;;6.03;5.43;;;26.10;42.00;;;;;;4970466;28;20455;-44
2023/06/25 04:03:22;;;;;;;5.67;5.20;;;26.10;42.20;;;;;;4969072;28;20282;-45
2023/06/25 04:05:48;;;;;;;7.40;5.03;;;26.10;42.20;;;;;;4969366;28;20199;-45
2023/06/25 04:08:14;;;;;;;5.00;4.60;;;26.10;42.40;;;;;;4968989;28;20195;-45
2023/06/25 04:10:40;;;;;;;6.47;5.83;;;26.10;42.40;;;;;;4965447;28;20447;-44
2023/06/25 04:13:07;;;;;;;5.07;4.67;;;26.10;42.30;;;;;;4968034;28;20199;-46
2023/06/25 04:15:32;;;;;;;6.10;5.60;;;26.10;42.10;;;;;;4965545;28;20494;-45
2023/06/25 04:17:58;;;;;;;6.00;5.50;;;26.10;42.20;;;;;;4967570;28;20465;-46
2023/06/25 04:20:26;;;;;;;5.87;5.43;;;26.10;42.00;;;;;;4968582;28;20823;-45
2023/06/25 04:22:51;;;;;;;6.57;5.50;;;26.10;42.00;;;;;;4956739;28;20354;-45
2023/06/25 04:25:17;;;;;;;5.80;5.30;;;26.10;42.10;;;;;;4963099;28;20655;-45
2023/06/25 04:27:43;;;;;;;5.50;5.00;;;26.10;42.20;;;;;;4961819;28;20242;-47
2023/06/25 04:30:09;;;;;;;5.60;5.10;;;26.00;42.20;;;;;;4965255;28;20218;-45
2023/06/25 04:32:35;;;;;;;5.03;4.63;;;26.00;42.30;;;;;;4971970;28;20585;-45
2023/06/25 04:35:00;;;;;;;5.10;4.70;;;26.10;42.30;;;;;;4964601;28;20513;-45
2023/06/25 04:37:26;;;;;;;5.80;5.40;;;26.00;42.50;;;;;;4968644;28;20545;-45
2023/06/25 04:39:52;;;;;;;6.13;5.63;;;26.00;42.40;;;;;;4948442;28;20203;-45
2023/06/25 04:42:17;;;;;;;5.37;4.97;;;26.00;42.50;;;;;;4971594;28;20199;-44
2023/06/25 04:44:43;;;;;;;6.57;5.90;;;25.90;42.70;;;;;;4969106;28;20187;-45
2023/06/25 04:47:09;;;;;;;5.90;5.40;;;25.90;43.10;;;;;;4968416;28;20294;-45
2023/06/25 04:49:34;;;;;;;5.67;5.13;;;25.90;42.50;;;;;;4960032;28;20603;-45
2023/06/25 04:52:00;;;;;;;6.73;6.13;;;26.00;42.70;;;;;;4966415;28;20195;-44
2023/06/25 04:54:25;;;;;;;5.80;4.90;;;25.90;42.70;;;;;;4962690;28;20191;-44
2023/06/25 04:56:51;;;;;;;10.97;6.20;;;26.00;42.60;;;;;;4963814;28;20226;-44
2023/06/25 04:59:17;;;;;;;12.20;5.50;;;26.00;42.70;;;;;;4958286;28;20203;-44
2023/06/25 05:01:42;;;;;;;5.23;4.83;;;26.00;42.70;;;;;;4959691;28;20203;-44
2023/06/25 05:04:08;;;;;;;5.23;4.73;;;25.90;43.10;;;;;;4967258;28;20288;-45
2023/06/25 05:06:34;;;;;;;5.73;5.23;;;26.00;43.10;;;;;;4967895;28;20242;-44
2023/06/25 05:08:59;;;;;;;5.83;5.30;;;26.10;42.80;;;;;;4969592;28;20640;-44
2023/06/25 05:11:25;;;;;;;5.90;5.40;;;26.10;42.50;;;;;;4966901;28;20197;-43
2023/06/25 05:13:50;;;;;;;5.93;5.43;;;26.30;42.20;;;;;;4969081;28;20196;-44
2023/06/25 05:16:16;;;;;;;5.90;5.30;;;26.30;42.20;;;;;;4967115;28;20690;-44
2023/06/25 05:18:42;;;;;;;5.93;5.43;;;26.30;42.30;;;;;;4964630;28;20195;-44
2023/06/25 05:21:07;;;;;;;8.23;4.80;;;26.30;42.10;;;;;;4963827;28;20231;-45
2023/06/25 05:23:44;;;;;;;5.63;5.13;;;26.40;42.20;;;;;;4962988;28;20509;-44
2023/06/25 05:26:11;;;;;;;9.20;6.10;;;26.40;42.10;;;;;;4970510;28;20258;-45
2023/06/25 05:28:37;;;;;;;7.57;6.00;;;26.40;42.20;;;;;;4963345;28;20451;-44
2023/06/25 05:31:03;;;;;;;5.87;5.37;;;26.40;42.60;;;;;;4961724;28;20533;-45
2023/06/25 05:33:28;;;;;;;5.37;4.97;;;26.30;42.40;;;;;;4958836;28;20538;-45
2023/06/25 05:35:56;;;;;;;7.70;5.33;;;26.30;42.70;;;;;;4968766;28;20258;-45
2023/06/25 05:38:22;;;;;;;6.70;6.00;;;26.40;42.40;;;;;;4968385;28;20203;-45
2023/06/25 05:40:47;;;;;;;6.13;5.30;;;26.50;42.00;;;;;;4970930;28;20844;-45
2023/06/25 05:43:13;;;;;;;6.23;5.30;;;26.50;41.60;;;;;;4971136;28;20910;-44
2023/06/25 05:45:39;;;;;;;6.23;5.73;;;26.60;41.70;;;;;;4969656;28;20245;-44
2023/06/25 05:48:05;;;;;;;5.90;5.40;;;26.70;41.70;;;;;;4968187;28;20198;-45
2023/06/25 05:50:30;;;;;;;5.27;4.87;;;26.70;41.30;;;;;;4970957;28;20203;-44
2023/06/25 05:52:56;;;;;;;5.67;5.10;;;26.70;41.20;;;;;;4971025;28;20226;-45
2023/06/25 05:55:21;;;;;;;5.67;5.17;;;26.80;41.20;;;;;;4969268;28;20237;-46
2023/06/25 05:57:47;;;;;;;6.63;6.03;;;26.80;41.20;;;;;;4967019;28;20195;-45
2023/06/25 06:00:13;;;;;;;7.00;6.37;;;26.80;41.00;;;;;;4964504;28;20195;-44
2023/06/25 06:02:38;;;;;;;6.13;5.53;;;26.80;40.60;;;;;;4965167;28;20265;-46
2023/06/25 06:05:04;;;;;;;6.80;6.20;;;26.80;40.90;;;;;;4969343;28;20200;-44
2023/06/25 06:07:30;;;;;;;5.97;5.47;;;26.80;40.60;;;;;;4972680;28;20270;-45
2023/06/25 06:09:55;;;;;;;8.23;5.53;;;26.80;40.40;;;;;;4973035;28;20230;-44
2023/06/25 06:12:21;;;;;;;6.63;6.13;;;26.80;39.80;;;;;;4969929;28;20881;-45
2023/06/25 06:14:47;;;;;;;6.50;5.90;;;26.80;40.10;;;;;;4966186;28;20677;-46
2023/06/25 06:17:13;;;;;;;7.10;5.73;;;26.50;39.50;;;;;;4959838;28;20294;-45
2023/06/25 06:19:38;;;;;;;7.10;6.40;;;26.40;39.10;;;;;;4966923;28;20822;-44
2023/06/25 06:22:04;;;;;;;7.20;6.53;;;26.40;38.90;;;;;;4963798;28;20205;-44
2023/06/25 06:24:30;;;;;;;7.00;6.40;;;26.40;38.60;;;;;;4968646;28;20744;-44
2023/06/25 06:26:55;;;;;;;6.60;6.00;;;26.20;38.80;;;;;;4971474;28;20623;-45
2023/06/25 06:29:21;;;;;;;7.70;7.10;;;26.00;39.00;;;;;;4969125;28;20231;-45
2023/06/25 06:31:47;;;;;;;7.07;6.40;;;26.10;38.80;;;;;;4970654;28;20202;-44
2023/06/25 06:34:13;;;;;;;15.53;8.93;;;26.20;39.00;;;;;;4965672;28;20230;-44
2023/06/25 06:36:38;;;;;;;7.70;7.00;;;26.40;38.20;;;;;;4969588;28;20266;-45
2023/06/25 06:39:04;;;;;;;7.10;6.40;;;26.30;38.20;;;;;;4963316;28;20524;-44
2023/06/25 06:41:29;;;;;;;8.43;7.63;;;26.30;38.10;;;;;;4971555;28;20199;-44
2023/06/25 06:44:19;;;;;;;7.93;7.23;;;26.40;37.80;;;;;;4974385;28;20244;-45
2023/06/25 06:46:45;;;;;;;6.97;6.37;;;26.60;37.30;;;;;;4974705;28;20291;-44
2023/06/25 06:49:11;;;;;;;7.60;6.90;;;26.70;37.20;;;;;;4973332;28;20442;-44
2023/06/25 06:51:38;;;;;;;7.43;6.80;;;26.80;37.10;;;;;;4972829;28;20434;-45
2023/06/25 06:54:04;;;;;;;8.30;7.50;;;26.80;36.60;;;;;;4973384;28;20537;-44
2023/06/25 06:56:30;;;;;;;8.40;7.60;;;26.70;36.90;;;;;;4970881;28;20882;-45
2023/06/25 06:58:56;;;;;;;8.80;7.77;;;26.80;37.10;;;;;;4972174;28;20421;-44
2023/06/25 07:01:21;;;;;;;7.60;7.00;;;26.90;36.10;;;;;;4971699;28;20423;-44
2023/06/25 07:03:47;;;;;;;8.53;7.23;;;27.00;36.20;;;;;;4957355;28;20239;-44
2023/06/25 07:06:13;;;;;;;8.00;7.40;;;27.20;36.40;;;;;;4973683;28;20195;-45
2023/06/25 07:08:38;;;;;;;9.33;8.27;;;27.40;35.70;;;;;;4971949;28;20238;-45
2023/06/25 07:11:04;;;;;;;6.77;6.20;;;27.50;35.10;;;;;;4974005;28;20278;-44
2023/06/25 07:13:30;;;;;;;10.00;7.23;;;27.40;34.00;;;;;;4973463;28;20191;-44
2023/06/25 07:15:56;;;;;;;7.63;6.93;;;27.40;34.10;;;;;;4972849;28;20227;-44
2023/06/25 07:18:21;;;;;;;8.43;7.67;;;27.50;33.80;;;;;;4970646;28;20446;-44
2023/06/25 07:20:47;;;;;;;8.03;7.33;;;27.70;34.00;;;;;;4972036;28;20253;-45
2023/06/25 07:23:12;;;;;;;7.30;6.60;;;27.90;34.40;;;;;;4971893;28;20223;-44
2023/06/25 07:25:38;;;;;;;8.20;7.33;;;28.20;34.20;;;;;;4971019;28;20238;-44
2023/06/25 07:28:04;;;;;;;9.77;8.77;;;28.40;32.80;;;;;;4972100;28;20192;-44
2023/06/25 07:30:29;;;;;;;8.97;8.17;;;28.40;32.90;;;;;;4970311;28;20561;-45
2023/06/25 07:32:57;;;;;;;8.80;8.00;;;28.60;33.50;;;;;;4973262;28;20200;-44
2023/06/25 07:35:23;;;;;;;8.07;7.37;;;28.80;32.80;;;;;;4971731;28;20802;-44
2023/06/25 07:37:48;;;;;;;8.23;7.43;;;28.90;32.70;;;;;;4973335;28;20502;-44
2023/06/25 07:40:14;;;;;;;8.77;7.97;;;29.00;32.40;;;;;;4970409;28;20570;-44
2023/06/25 07:42:40;;;;;;;8.40;7.70;;;29.30;32.10;;;;;;4971322;28;20206;-44
2023/06/25 07:45:06;;;;;;;12.30;7.73;;;29.40;31.60;;;;;;4971317;28;20274;-44
2023/06/25 07:47:32;;;;;;;8.07;7.40;;;29.50;31.30;;;;;;4973013;28;20195;-46
2023/06/25 07:49:57;;;;;;;8.50;7.70;;;29.70;30.00;;;;;;4969105;28;20965;-44
2023/06/25 07:52:23;;;;;;;8.23;7.50;;;29.80;30.00;;;;;;4972883;28;20194;-44
2023/06/25 07:54:48;;;;;;;9.10;8.30;;;30.00;30.10;;;;;;4970915;28;20218;-44
2023/06/25 07:57:15;;;;;;;8.70;7.97;;;29.80;29.90;;;;;;4970748;28;20626;-45
2023/06/25 07:59:41;;;;;;;8.93;8.10;;;29.70;30.00;;;;;;4968007;28;20206;-44
2023/06/25 08:02:06;;;;;;;9.20;8.40;;;29.90;29.90;;;;;;4970203;28;20442;-44
2023/06/25 08:04:32;;;;;;;13.57;8.07;;;30.00;29.70;;;;;;4972117;28;20453;-45
2023/06/25 08:06:58;;;;;;;8.30;7.60;;;30.00;30.00;;;;;;4971306;28;20203;-44
2023/06/25 08:09:23;;;;;;;8.70;7.90;;;30.30;29.90;;;;;;4971641;28;20580;-45
2023/06/25 08:11:49;;;;;;;10.07;9.07;;;30.40;29.70;;;;;;4969754;28;20258;-44
2023/06/25 08:14:15;;;;;;;8.30;7.60;;;30.60;29.60;;;;;;4968397;28;20195;-44
2023/06/25 08:16:40;;;;;;;9.90;8.43;;;30.80;28.70;;;;;;4968772;28;20796;-44
2023/06/25 08:19:06;;;;;;;8.83;8.13;;;31.20;29.00;;;;;;4971764;28;20340;-44
2023/06/25 08:21:31;;;;;;;9.03;8.23;;;31.00;29.00;;;;;;4968707;28;20191;-46
2023/06/25 08:23:57;;;;;;;8.80;8.10;;;30.80;29.00;;;;;;4969511;28;20269;-45
2023/06/25 08:26:22;;;;;;;8.33;7.63;;;31.00;29.40;;;;;;4965376;28;20200;-44
2023/06/25 08:28:48;;;;;;;9.23;8.43;;;31.40;28.60;;;;;;4962989;28;20226;-44
2023/06/25 08:31:13;;;;;;;9.00;8.10;;;31.70;27.90;;;;;;4972177;28;20198;-44
2023/06/25 08:33:39;;;;;;;8.70;8.00;;;31.60;27.80;;;;;;4971830;28;20218;-44
2023/06/25 08:36:05;;;;;;;8.17;7.37;;;31.70;28.70;;;;;;4971493;28;20227;-45
2023/06/25 08:38:32;;;;;;;10.50;7.60;;;32.10;28.00;;;;;;4965393;28;20232;-44
2023/06/25 08:40:58;;;;;;;8.30;7.60;;;32.20;27.20;;;;;;4970838;28;20466;-43
2023/06/25 08:43:24;;;;;;;8.63;7.83;;;32.30;26.60;;;;;;4972236;28;20450;-44
2023/06/25 08:45:49;;;;;;;8.63;7.90;;;32.20;27.00;;;;;;4972616;28;20570;-44
2023/06/25 08:48:17;;;;;;;8.63;7.87;;;31.20;27.90;;;;;;4972628;28;20202;-44
2023/06/25 08:50:48;;;;;;;8.20;7.50;;;31.50;28.00;;;;;;4967836;28;20203;-44
2023/06/25 08:53:13;;;;;;;7.90;7.20;;;30.80;27.90;;;;;;4970953;28;20438;-45
2023/06/25 08:55:41;;;;;;;8.13;7.50;;;30.80;28.20;;;;;;4969424;28;20489;-44
2023/06/25 08:58:07;;;;;;;7.30;6.70;;;31.10;27.80;;;;;;4970845;28;20195;-44
2023/06/25 09:00:32;;;;;;;7.27;6.67;;;31.40;26.70;;;;;;4968760;28;20466;-45
2023/06/25 09:02:58;;;;;;;7.57;6.87;;;32.00;26.20;;;;;;4971774;28;20191;-44
2023/06/25 09:05:26;;;;;;;8.70;7.90;;;32.50;26.00;;;;;;4971562;28;20240;-44
2023/06/25 09:07:52;;;;;;;8.70;8.00;;;32.60;25.70;;;;;;4967971;28;20227;-44
2023/06/25 09:10:22;;;;;;;8.50;7.80;;;32.80;25.70;;;;;;4970534;28;20446;-44
2023/06/25 09:12:49;;;;;;;8.23;7.53;;;32.80;25.80;;;;;;4969933;28;20461;-45
2023/06/25 09:15:22;;;;;;;7.77;7.17;;;32.90;25.70;;;;;;4971125;28;20501;-44
2023/06/25 09:17:48;;;;;;;9.03;8.17;;;32.70;24.90;;;;;;4965798;28;20761;-44
2023/06/25 09:20:14;;;;;;;8.13;7.00;;;32.90;25.10;;;;;;4969604;28;20457;-44
2023/06/25 09:22:53;;;;;;;7.77;7.17;;;32.80;24.70;;;;;;4964660;28;20439;-44
2023/06/25 09:25:20;;;;;;;7.53;6.90;;;33.20;24.60;;;;;;4968784;28;20710;-44
2023/06/25 09:27:47;;;;;;;8.10;7.40;;;33.40;24.50;;;;;;4969894;28;21012;-46
2023/06/25 09:30:13;;;;;;;8.80;7.70;;;33.80;23.90;;;;;;4969753;28;20471;-45
2023/06/25 09:32:51;;;;;;;8.13;7.43;;;34.10;23.10;;;;;;4972112;28;20442;-46
2023/06/25 09:35:21;;;;;;;7.23;6.63;;;34.30;23.20;;;;;;4970827;28;20572;-44
2023/06/25 09:37:49;;;;;;;8.20;7.43;;;34.20;22.70;;;;;;4968153;28;20451;-46
2023/06/25 09:40:14;;;;;;;11.43;7.60;;;33.40;23.30;;;;;;4965471;28;20953;-44
2023/06/25 09:42:42;;;;;;;8.70;7.90;;;33.00;23.80;;;;;;4968389;28;20477;-44
2023/06/25 09:45:12;;;;;;;8.13;7.43;;;33.40;24.00;;;;;;4966217;28;20211;-44
2023/06/25 09:47:45;;;;;;;8.60;7.80;;;33.90;23.10;;;;;;4969205;28;20450;-45
2023/06/25 09:50:28;;;;;;;10.23;7.80;;;34.40;23.20;;;;;;4969565;28;20435;-44
2023/06/25 09:52:59;;;;;;;7.70;7.03;;;34.60;22.50;;;;;;4967019;28;20963;-44
2023/06/25 09:55:27;;;;;;;7.80;7.10;;;34.50;22.00;;;;;;4963735;28;20505;-45
2023/06/25 09:57:54;;;;;;;8.33;7.63;;;34.50;22.70;;;;;;4969824;28;20475;-44
2023/06/25 10:00:21;;;;;;;7.87;7.27;;;34.80;22.60;;;;;;4966860;28;20438;-44
2023/06/25 10:02:47;;;;;;;8.97;8.17;;;35.10;22.50;;;;;;4970449;28;20453;-46
2023/06/25 10:05:13;;;;;;;7.70;7.07;;;35.50;22.30;;;;;;4968908;28;20482;-44
2023/06/25 10:07:39;;;;;;;8.83;8.07;;;35.90;22.20;;;;;;4970384;28;20873;-45
2023/06/25 10:10:06;;;;;;;8.67;7.97;;;35.60;20.80;;;;;;4968802;28;20561;-44
2023/06/25 10:12:41;;;;;;;8.57;7.87;;;35.30;20.60;;;;;;4971020;28;20477;-45
2023/06/25 10:15:06;;;;;;;7.80;7.10;;;35.50;20.50;;;;;;4968887;28;20445;-46
2023/06/25 10:17:33;;;;;;;8.13;7.50;;;35.50;20.90;;;;;;4969929;28;20524;-45
2023/06/25 10:20:00;;;;;;;8.23;7.17;;;34.80;22.00;;;;;;4969787;28;20195;-44
2023/06/25 10:22:27;;;;;;;7.50;6.90;;;34.90;21.80;;;;;;4970236;28;20446;-46
2023/06/25 10:24:54;;;;;;;8.13;7.53;;;35.20;21.10;;;;;;4970227;28;20482;-48
2023/06/25 10:27:24;;;;;;;7.40;6.80;;;35.20;20.80;;;;;;4971143;28;20462;-45
2023/06/25 10:29:50;;;;;;;7.53;6.93;;;35.50;20.50;;;;;;4968053;28;20495;-47
2023/06/25 10:32:27;;;;;;;7.83;7.23;;;35.50;20.90;;;;;;4969951;28;20537;-45
2023/06/25 10:34:53;;;;;;;7.80;7.03;;;35.50;20.80;;;;;;4970329;28;20458;-46
2023/06/25 10:37:19;;;;;;;8.17;7.47;;;36.00;20.70;;;;;;4969072;28;20454;-48
2023/06/25 10:39:45;;;;;;;8.30;7.67;;;36.00;21.00;;;;;;4964876;28;20509;-46
2023/06/25 10:42:13;;;;;;;7.60;7.00;;;35.70;20.20;;;;;;4959366;28;20199;-46
2023/06/25 10:44:40;;;;;;;8.20;7.53;;;35.70;20.70;;;;;;4967633;28;20683;-46
2023/06/25 10:47:10;;;;;;;8.20;7.50;;;36.00;20.50;;;;;;4970254;28;20505;-46
2023/06/25 10:49:36;;;;;;;7.07;6.53;;;35.80;20.20;;;;;;4964190;28;20458;-47
2023/06/25 10:52:03;;;;;;;7.60;7.00;;;36.10;20.30;;;;;;4963731;28;20453;-45
2023/06/25 10:54:32;;;;;;;7.80;7.10;;;36.20;20.10;;;;;;4972419;28;20445;-47
2023/06/25 10:57:11;;;;;;;7.97;7.30;;;36.30;20.40;;;;;;4974490;28;20493;-48
2023/06/25 10:59:43;;;;;;;7.40;6.80;;;36.70;20.30;;;;;;4971626;28;21287;-44
2023/06/25 11:02:13;;;;;;;8.47;7.77;;;36.70;19.80;;;;;;4970373;28;20448;-44
2023/06/25 11:04:38;;;;;;;10.57;7.60;;;36.50;19.60;;;;;;4967160;28;20978;-47
2023/06/25 11:07:04;;;;;;;7.63;7.03;;;36.40;19.90;;;;;;4961799;28;20442;-46
2023/06/25 11:09:30;;;;;;;7.47;6.87;;;36.60;20.10;;;;;;4969860;28;20278;-48
2023/06/25 11:11:55;;;;;;;8.23;7.53;;;36.70;20.10;;;;;;4972657;28;20263;-49
2023/06/25 11:14:21;;;;;;;7.70;7.10;;;36.90;20.00;;;;;;4970841;28;20194;-49
2023/06/25 11:16:47;;;;;;;7.67;7.07;;;37.20;19.60;;;;;;4972608;28;20266;-48
2023/06/25 11:19:12;;;;;;;10.27;7.63;;;37.20;19.80;;;;;;4969429;28;20211;-46
2023/06/25 11:21:38;;;;;;;6.93;6.33;;;37.10;19.40;;;;;;4972336;28;20205;-48
2023/06/25 11:24:08;;;;;;;6.97;6.40;;;37.10;20.20;;;;;;4973584;28;20257;-47
2023/06/25 11:26:43;;;;;;;7.30;6.70;;;36.90;20.60;;;;;;4973780;28;20195;-46
2023/06/25 11:29:10;;;;;;;8.33;7.73;;;37.00;20.70;;;;;;4972067;28;20512;-45
2023/06/25 11:31:43;;;;;;;7.20;6.60;;;37.40;20.50;;;;;;4972990;28;21001;-44
2023/06/25 11:34:25;;;;;;;7.97;7.33;;;37.50;19.40;;;;;;4972436;28;20434;-44
2023/06/25 11:36:51;;;;;;;7.33;6.73;;;37.10;18.80;;;;;;4971336;28;20656;-45
2023/06/25 11:39:18;;;;;;;6.70;6.00;;;36.60;18.70;;;;;;4970780;28;20966;-44
2023/06/25 11:41:44;;;;;;;8.30;7.50;;;36.50;19.50;;;;;;4971335;28;20439;-45
2023/06/25 11:44:20;;;;;;;8.00;7.30;;;36.70;19.40;;;;;;4973765;28;20780;-44
2023/06/25 11:46:52;;;;;;;7.80;7.20;;;35.60;19.50;;;;;;4972408;28;20469;-44
2023/06/25 11:49:18;;;;;;;7.93;7.33;;;36.00;19.50;;;;;;4970159;28;20469;-46
2023/06/25 11:51:45;;;;;;;7.10;6.50;;;36.60;18.80;;;;;;4971761;28;20471;-44
2023/06/25 11:54:11;;;;;;;7.23;6.63;;;36.50;19.30;;;;;;4973594;28;20426;-44
2023/06/25 11:56:37;;;;;;;8.10;7.30;;;37.10;19.60;;;;;;4967540;28;20497;-46
2023/06/25 11:59:03;;;;;;;8.10;7.50;;;37.30;19.40;;;;;;4970266;28;20741;-46
2023/06/25 12:01:31;;;;;;;7.67;7.07;;;37.50;18.80;;;;;;4972110;28;20285;-44
2023/06/25 12:03:57;;;;;;;7.80;7.20;;;38.10;19.00;;;;;;4972128;28;20203;-47
2023/06/25 12:06:25;;;;;;;6.60;6.03;;;38.30;18.70;;;;;;4969134;28;20453;-44
2023/06/25 12:08:51;;;;;;;7.63;7.03;;;37.90;19.20;;;;;;4968803;28;20700;-44
2023/06/25 12:11:17;;;;;;;7.57;6.97;;;37.50;19.00;;;;;;4973221;28;20426;-45
2023/06/25 12:13:43;;;;;;;7.40;6.90;;;37.80;19.30;;;;;;4968443;28;20258;-46
2023/06/25 12:16:08;;;;;;;6.03;5.63;;;38.20;19.00;;;;;;4971287;28;20496;-48
2023/06/25 12:18:34;;;;;;;6.23;5.80;;;37.60;18.60;;;;;;4970240;28;20596;-44
2023/06/25 12:21:00;;;;;;;6.87;6.37;;;37.30;19.60;;;;;;4973119;28;20199;-43
2023/06/25 12:23:25;;;;;;;6.80;5.80;;;37.50;19.60;;;;;;4969819;28;20238;-45
2023/06/25 12:25:51;;;;;;;7.30;6.80;;;37.90;19.20;;;;;;4970910;28;20269;-44
2023/06/25 12:28:16;;;;;;;7.33;6.73;;;37.60;18.90;;;;;;4967523;28;20249;-47
2023/06/25 12:30:42;;;;;;;6.30;5.90;;;37.90;19.30;;;;;;4969594;28;20210;-44
2023/06/25 12:33:08;;;;;;;8.17;7.47;;;38.10;18.80;;;;;;4970864;28;20206;-44
2023/06/25 12:35:33;;;;;;;7.30;6.70;;;38.40;18.40;;;;;;4967679;28;20234;-45
2023/06/25 12:37:59;;;;;;;7.17;6.50;;;38.80;18.40;;;;;;4971084;28;20206;-44
2023/06/25 12:40:24;;;;;;;8.30;7.70;;;38.90;18.10;;;;;;4971250;28;20670;-45
2023/06/25 12:42:50;;;;;;;7.80;7.20;;;39.10;18.40;;;;;;4972430;28;20202;-45